Time;durP1;ratioP1;P1;durP2;ratioP2;P2;SDS_P1;SDS_P2;PMS_P1;PMS_P2;Temp;Humidity;BMP_temperature;BMP_pressure;BME280_temperature;BME280_humidity;BME280_pressure;Samples;Min_cycle;Max_cycle;Signal;HPM_P1;HPM_P2
2022/10/10 00:02:15;;;;;;;11.13;5.40;;;8.20;99.90;;;;;;5052561;28;20059;-64
2022/10/10 00:04:40;;;;;;;10.13;4.68;;;8.20;99.90;;;;;;5052371;28;20100;-65
2022/10/10 00:07:06;;;;;;;9.25;4.60;;;8.20;99.90;;;;;;5050318;28;20387;-63
2022/10/10 00:09:32;;;;;;;9.20;4.75;;;8.20;99.90;;;;;;5052429;28;20033;-66
2022/10/10 00:11:58;;;;;;;11.23;4.97;;;8.10;99.90;;;;;;5051386;28;20116;-64
2022/10/10 00:14:24;;;;;;;10.18;5.00;;;8.10;99.90;;;;;;5052656;28;20119;-64
2022/10/10 00:16:49;;;;;;;12.40;5.32;;;8.10;99.90;;;;;;5051985;28;20043;-67
2022/10/10 00:19:15;;;;;;;14.27;4.90;;;8.10;99.90;;;;;;5052117;28;20083;-63
2022/10/10 00:21:41;;;;;;;10.15;4.70;;;8.10;99.90;;;;;;5050829;28;20069;-65
2022/10/10 00:24:06;;;;;;;13.35;4.80;;;8.20;99.90;;;;;;5050286;28;20059;-64
2022/10/10 00:26:32;;;;;;;8.73;4.70;;;8.20;99.90;;;;;;5051110;28;20393;-64
2022/10/10 00:28:58;;;;;;;12.00;4.85;;;8.20;99.90;;;;;;5048701;28;20033;-64
2022/10/10 00:31:24;;;;;;;13.65;4.72;;;8.20;99.90;;;;;;5050237;28;20032;-65
2022/10/10 00:33:50;;;;;;;10.63;5.22;;;8.20;99.90;;;;;;5050211;28;20518;-68
2022/10/10 00:36:15;;;;;;;13.60;4.88;;;8.20;99.90;;;;;;5050513;28;20142;-64
2022/10/10 00:38:41;;;;;;;10.30;4.93;;;8.20;99.90;;;;;;5050319;28;20051;-64
2022/10/10 00:41:07;;;;;;;10.95;4.85;;;8.20;99.90;;;;;;5050001;28;20470;-64
2022/10/10 00:43:33;;;;;;;15.63;5.30;;;8.20;99.90;;;;;;5050730;28;20075;-63
2022/10/10 00:45:59;;;;;;;11.88;5.03;;;8.20;99.90;;;;;;5048679;28;20056;-62
2022/10/10 00:48:32;;;;;;;9.18;4.68;;;8.20;99.90;;;;;;5050434;28;20497;-65
2022/10/10 00:51:11;;;;;;;11.18;4.88;;;8.30;99.90;;;;;;5049950;28;20037;-63
2022/10/10 00:53:43;;;;;;;10.35;4.90;;;8.20;99.90;;;;;;5050658;28;20044;-63
2022/10/10 00:56:11;;;;;;;7.93;4.57;;;8.30;99.90;;;;;;5049550;28;20055;-64
2022/10/10 00:58:41;;;;;;;10.98;4.90;;;8.30;99.90;;;;;;5050569;28;20060;-64
2022/10/10 01:01:07;;;;;;;13.02;4.63;;;8.20;99.90;;;;;;5050017;28;20613;-65
2022/10/10 01:03:33;;;;;;;10.52;4.60;;;8.20;99.90;;;;;;5050154;28;20033;-65
2022/10/10 01:05:59;;;;;;;12.60;4.70;;;8.20;99.90;;;;;;5049834;28;20064;-64
2022/10/10 01:08:25;;;;;;;9.95;4.55;;;8.20;99.90;;;;;;5050332;28;20107;-65
2022/10/10 01:11:16;;;;;;;10.77;4.80;;;8.10;99.90;;;;;;5050123;28;20588;-67
2022/10/10 01:13:50;;;;;;;13.82;4.82;;;8.00;99.90;;;;;;5050294;28;20111;-63
2022/10/10 01:16:51;;;;;;;11.30;5.50;;;7.90;99.90;;;;;;5049328;28;20017;-63
2022/10/10 01:22:34;;;;;;;8.20;4.72;;;8.00;99.90;;;;;;5065666;28;21079;-65
2022/10/10 01:25:31;;;;;;;11.02;5.30;;;8.00;99.90;;;;;;5065200;28;20045;-63
2022/10/10 01:28:09;;;;;;;12.68;5.20;;;8.00;99.90;;;;;;5065911;28;20071;-64
2022/10/10 01:30:35;;;;;;;9.55;5.00;;;8.00;99.90;;;;;;5066606;28;20043;-64
2022/10/10 01:33:07;;;;;;;8.88;5.00;;;8.10;99.90;;;;;;5065359;28;20025;-62
2022/10/10 01:35:43;;;;;;;12.38;5.32;;;8.10;99.90;;;;;;5065148;28;20063;-64
2022/10/10 01:38:35;;;;;;;9.93;5.40;;;8.10;99.90;;;;;;5065468;28;20056;-65
2022/10/10 01:41:39;;;;;;;12.38;5.15;;;8.10;99.90;;;;;;5065604;28;20028;-65
2022/10/10 01:44:05;;;;;;;10.13;4.93;;;8.00;99.90;;;;;;5042683;28;20041;-64
2022/10/10 01:46:31;;;;;;;12.48;5.30;;;8.10;99.90;;;;;;5043506;28;20087;-65
2022/10/10 01:48:58;;;;;;;9.05;4.97;;;8.10;99.90;;;;;;5052999;28;20032;-65
2022/10/10 01:51:39;;;;;;;8.77;5.22;;;8.00;99.90;;;;;;5066099;28;20036;-64
2022/10/10 01:54:04;;;;;;;;;;;8.10;99.90;;;;;;5065748;28;20031;-65
2022/10/10 01:56:48;;;;;;;19.05;5.25;;;8.10;99.90;;;;;;5066085;28;19910;-65
2022/10/10 02:00:01;;;;;;;12.02;5.40;;;8.10;99.90;;;;;;5065030;28;20645;-64
2022/10/10 02:02:57;;;;;;;10.88;5.30;;;8.10;99.90;;;;;;5031783;28;20911;-63
2022/10/10 02:05:37;;;;;;;13.02;5.60;;;8.00;99.90;;;;;;5043228;28;20134;-64
2022/10/10 02:08:22;;;;;;;9.88;5.68;;;8.00;99.90;;;;;;5042450;28;20448;-64
2022/10/10 02:10:53;;;;;;;12.10;5.45;;;8.00;99.90;;;;;;5043126;28;20448;-64
2022/10/10 02:13:25;;;;;;;10.48;5.57;;;8.10;99.90;;;;;;5042340;28;20493;-63
2022/10/10 02:15:54;;;;;;;14.10;6.00;;;8.10;99.90;;;;;;5043036;28;20029;-64
2022/10/10 02:18:24;;;;;;;10.68;5.00;;;8.10;99.90;;;;;;5042496;28;20029;-62
2022/10/10 02:20:52;;;;;;;14.25;4.82;;;8.10;99.90;;;;;;5042458;28;20065;-65
2022/10/10 02:23:20;;;;;;;12.55;5.18;;;8.00;99.90;;;;;;5042058;28;20067;-64
2022/10/10 02:25:51;;;;;;;16.50;5.85;;;8.00;99.90;;;;;;5042822;28;20037;-64
2022/10/10 02:28:28;;;;;;;11.68;5.30;;;8.10;99.90;;;;;;5041559;28;20171;-65
2022/10/10 02:30:58;;;;;;;11.02;5.10;;;8.10;99.90;;;;;;5025709;28;20117;-65
2022/10/10 02:33:31;;;;;;;15.35;5.75;;;8.10;99.90;;;;;;5023519;28;20045;-66
2022/10/10 02:35:59;;;;;;;11.25;4.93;;;8.10;99.90;;;;;;5031616;28;20041;-67
2022/10/10 02:38:26;;;;;;;9.48;5.13;;;8.10;99.90;;;;;;5032039;28;20040;-64
2022/10/10 02:40:54;;;;;;;13.30;5.15;;;8.00;99.90;;;;;;5032070;28;20033;-65
2022/10/10 02:43:20;;;;;;;9.60;4.63;;;8.00;99.90;;;;;;5031330;28;20025;-65
2022/10/10 02:45:46;;;;;;;11.82;5.07;;;8.10;99.90;;;;;;5034160;28;20076;-64
2022/10/10 02:48:12;;;;;;;10.75;4.90;;;8.20;99.90;;;;;;5051240;28;20025;-64
2022/10/10 02:50:38;;;;;;;10.60;5.25;;;8.20;99.90;;;;;;5051819;28;20695;-64
2022/10/10 02:53:03;;;;;;;14.73;5.20;;;8.20;99.90;;;;;;5050935;28;20112;-65
2022/10/10 02:55:29;;;;;;;9.52;5.10;;;8.20;99.90;;;;;;5051740;28;20499;-64
2022/10/10 02:57:54;;;;;;;10.10;4.95;;;8.20;99.90;;;;;;5051315;28;20519;-64
2022/10/10 03:00:20;;;;;;;9.00;4.97;;;8.30;99.90;;;;;;5050709;28;20040;-64
2022/10/10 03:02:46;;;;;;;13.20;5.00;;;8.20;99.90;;;;;;5051312;28;20446;-64
2022/10/10 03:05:12;;;;;;;11.35;5.03;;;8.20;99.90;;;;;;5050498;28;20060;-64
2022/10/10 03:07:38;;;;;;;13.18;5.05;;;8.20;99.90;;;;;;5051818;28;20086;-64
2022/10/10 03:10:07;;;;;;;10.50;5.13;;;8.10;99.90;;;;;;5050945;28;20033;-62
2022/10/10 03:12:33;;;;;;;14.18;5.78;;;8.10;99.90;;;;;;5051436;28;20036;-65
2022/10/10 03:14:59;;;;;;;14.98;5.40;;;8.10;99.90;;;;;;5050827;28;20499;-67
2022/10/10 03:17:24;;;;;;;12.02;4.93;;;8.10;99.90;;;;;;5050945;28;20100;-66
2022/10/10 03:19:50;;;;;;;13.43;5.15;;;8.10;99.90;;;;;;5050709;28;20029;-66
2022/10/10 03:22:16;;;;;;;10.15;4.97;;;8.10;99.90;;;;;;5048581;28;20032;-64
2022/10/10 03:24:41;;;;;;;12.38;5.20;;;8.10;99.90;;;;;;5033220;28;20066;-65
2022/10/10 03:27:07;;;;;;;14.00;4.70;;;8.10;99.90;;;;;;5050092;28;20440;-65
2022/10/10 03:29:33;;;;;;;10.75;4.78;;;8.10;99.90;;;;;;5050886;28;20033;-64
2022/10/10 03:31:58;;;;;;;8.07;4.43;;;8.10;99.90;;;;;;5050881;28;20041;-68
2022/10/10 03:34:24;;;;;;;11.13;5.10;;;8.10;99.90;;;;;;5050509;28;20728;-63
2022/10/10 03:36:49;;;;;;;15.82;7.22;;;8.20;99.90;;;;;;5051010;28;20029;-64
2022/10/10 03:39:15;;;;;;;38.05;15.23;;;8.10;99.90;;;;;;5050407;28;20052;-64
2022/10/10 03:41:41;;;;;;;23.67;10.18;;;8.20;99.90;;;;;;5050920;28;20060;-65
2022/10/10 03:44:06;;;;;;;17.30;8.48;;;8.20;99.90;;;;;;5049054;28;20033;-63
2022/10/10 03:46:32;;;;;;;15.57;6.97;;;8.20;99.90;;;;;;5050616;28;20429;-65
2022/10/10 03:48:57;;;;;;;14.50;6.50;;;8.30;99.90;;;;;;5050770;28;20032;-64
2022/10/10 03:51:23;;;;;;;13.57;6.60;;;8.30;99.90;;;;;;5049851;28;20564;-64
2022/10/10 03:53:49;;;;;;;15.32;6.22;;;8.30;99.90;;;;;;5050644;28;20029;-65
2022/10/10 03:56:14;;;;;;;15.43;5.97;;;8.30;99.90;;;;;;5049716;28;20390;-64
2022/10/10 03:58:40;;;;;;;15.95;6.05;;;8.30;99.90;;;;;;5049938;28;20033;-63
2022/10/10 04:01:06;;;;;;;9.93;5.80;;;8.30;99.90;;;;;;5049656;28;20251;-65
2022/10/10 04:03:32;;;;;;;11.45;5.93;;;8.30;99.90;;;;;;5050467;28;20060;-64
2022/10/10 04:05:58;;;;;;;11.00;5.60;;;8.30;99.90;;;;;;5050235;28;20071;-64
2022/10/10 04:08:24;;;;;;;11.43;5.30;;;8.30;99.90;;;;;;5049592;28;20590;-65
2022/10/10 04:10:51;;;;;;;16.55;5.68;;;8.30;99.90;;;;;;5050387;28;20041;-64
2022/10/10 04:13:18;;;;;;;9.05;5.18;;;8.30;99.90;;;;;;5049468;28;20029;-64
2022/10/10 04:15:44;;;;;;;10.30;4.78;;;8.30;99.90;;;;;;5050084;28;20029;-64
2022/10/10 04:18:10;;;;;;;13.00;4.93;;;8.30;99.90;;;;;;5049393;28;20405;-66
2022/10/10 04:20:35;;;;;;;10.25;5.30;;;8.20;99.90;;;;;;5048260;28;20091;-64
2022/10/10 04:23:01;;;;;;;13.05;5.22;;;8.30;99.90;;;;;;5049833;28;20381;-68
2022/10/10 04:25:27;;;;;;;10.70;5.25;;;8.30;99.90;;;;;;5049303;28;20039;-63
2022/10/10 04:27:52;;;;;;;10.45;5.63;;;8.30;99.90;;;;;;5049723;28;20453;-64
2022/10/10 04:30:18;;;;;;;15.63;5.90;;;8.30;99.90;;;;;;5047494;28;20041;-64
2022/10/10 04:32:44;;;;;;;10.35;5.20;;;8.20;99.90;;;;;;5049966;28;20029;-63
2022/10/10 04:35:11;;;;;;;9.93;5.53;;;8.20;99.90;;;;;;5048906;28;20531;-65
2022/10/10 04:37:36;;;;;;;12.63;5.35;;;8.20;99.90;;;;;;5049805;28;20040;-63
2022/10/10 04:40:03;;;;;;;13.10;5.70;;;8.20;99.90;;;;;;5049430;28;20036;-69
2022/10/10 04:42:29;;;;;;;9.48;5.00;;;8.20;99.90;;;;;;5047814;28;20453;-65
2022/10/10 04:44:54;;;;;;;13.20;6.13;;;8.20;99.90;;;;;;5049485;28;20062;-65
2022/10/10 04:47:20;;;;;;;12.68;5.80;;;8.20;99.90;;;;;;5048900;28;20521;-66
2022/10/10 04:49:46;;;;;;;12.50;5.90;;;8.20;99.90;;;;;;5048070;28;20389;-63
2022/10/10 04:52:12;;;;;;;13.10;6.22;;;8.20;99.90;;;;;;5048787;28;20037;-65
2022/10/10 04:54:38;;;;;;;11.38;5.72;;;8.20;99.90;;;;;;5049172;28;20040;-64
2022/10/10 04:57:04;;;;;;;13.35;6.10;;;8.20;99.90;;;;;;5049363;28;20102;-67
2022/10/10 04:59:29;;;;;;;14.45;6.75;;;8.20;99.90;;;;;;5048730;28;20052;-64
2022/10/10 05:01:55;;;;;;;12.88;6.57;;;8.20;99.90;;;;;;5049181;28;20028;-64
2022/10/10 05:04:21;;;;;;;12.32;6.00;;;8.20;99.90;;;;;;5047178;28;20469;-66
2022/10/10 05:06:46;;;;;;;12.63;6.55;;;8.20;99.90;;;;;;5049174;28;20051;-63
2022/10/10 05:09:12;;;;;;;12.27;6.05;;;8.10;99.90;;;;;;5048615;28;20039;-63
2022/10/10 05:11:38;;;;;;;14.60;5.97;;;8.10;99.90;;;;;;5049360;28;20035;-64
2022/10/10 05:14:03;;;;;;;11.98;6.47;;;8.20;99.90;;;;;;5048895;28;20540;-65
2022/10/10 05:16:29;;;;;;;16.08;5.88;;;8.20;99.90;;;;;;5048269;28;20132;-64
2022/10/10 05:18:56;;;;;;;11.73;6.28;;;8.20;99.90;;;;;;5049141;28;20033;-64
2022/10/10 05:21:22;;;;;;;15.38;6.65;;;8.20;99.90;;;;;;5047839;28;20061;-65
2022/10/10 05:23:48;;;;;;;14.32;6.22;;;8.20;99.90;;;;;;5048974;28;20036;-64
2022/10/10 05:26:14;;;;;;;10.93;5.88;;;8.30;99.90;;;;;;5047017;28;20062;-65
2022/10/10 05:28:40;;;;;;;11.02;5.47;;;8.20;99.90;;;;;;5049231;28;20025;-65
2022/10/10 05:31:06;;;;;;;15.43;5.50;;;8.20;99.90;;;;;;5048586;28;20037;-66
2022/10/10 05:33:32;;;;;;;11.52;4.80;;;8.20;99.90;;;;;;5048628;28;20127;-65
2022/10/10 05:36:10;;;;;;;13.32;5.60;;;8.20;99.90;;;;;;5049426;28;20028;-64
2022/10/10 05:38:37;;;;;;;13.38;5.85;;;8.20;99.90;;;;;;5049136;28;20021;-64
2022/10/10 05:41:03;;;;;;;11.77;6.05;;;8.20;99.90;;;;;;5049015;28;20110;-64
2022/10/10 05:43:29;;;;;;;11.45;6.18;;;8.20;99.90;;;;;;5048276;28;20051;-64
2022/10/10 05:45:55;;;;;;;16.88;7.40;;;8.20;99.90;;;;;;5049071;28;20034;-65
2022/10/10 05:48:21;;;;;;;11.55;6.78;;;8.30;99.90;;;;;;5048161;28;20029;-65
2022/10/10 05:50:49;;;;;;;14.63;7.45;;;8.30;99.90;;;;;;5047483;28;20041;-63
2022/10/10 05:53:15;;;;;;;15.07;7.15;;;8.30;99.90;;;;;;5047732;28;20029;-66
2022/10/10 05:55:43;;;;;;;14.00;7.50;;;8.30;99.90;;;;;;5048994;28;20120;-64
2022/10/10 05:58:09;;;;;;;18.50;7.85;;;8.30;99.90;;;;;;5048433;28;20025;-67
2022/10/10 06:00:35;;;;;;;15.82;7.25;;;8.40;99.90;;;;;;5048539;28;20039;-65
2022/10/10 06:03:01;;;;;;;18.40;6.88;;;8.40;99.90;;;;;;5048869;28;20087;-65
2022/10/10 06:05:27;;;;;;;12.77;7.03;;;8.40;99.90;;;;;;5048099;28;20025;-65
2022/10/10 06:07:53;;;;;;;15.25;6.65;;;8.40;99.90;;;;;;5050505;28;20035;-65
2022/10/10 06:10:19;;;;;;;11.98;6.75;;;8.40;99.90;;;;;;5051829;28;20362;-63
2022/10/10 06:12:44;;;;;;;14.77;6.78;;;8.40;99.90;;;;;;5051020;28;20064;-63
2022/10/10 06:15:10;;;;;;;14.95;7.00;;;8.40;99.90;;;;;;5052091;28;20041;-68
2022/10/10 06:17:36;;;;;;;12.57;6.85;;;8.30;99.90;;;;;;5052278;28;20029;-64
2022/10/10 06:20:02;;;;;;;15.30;7.15;;;8.40;99.90;;;;;;5052102;28;20382;-64
2022/10/10 06:22:28;;;;;;;13.93;6.55;;;8.50;99.90;;;;;;5051256;28;20107;-63
2022/10/10 06:24:54;;;;;;;19.63;6.97;;;8.50;99.90;;;;;;5052366;28;20033;-63
2022/10/10 06:27:20;;;;;;;13.52;6.57;;;8.60;99.90;;;;;;5051544;28;20037;-66
2022/10/10 06:29:46;;;;;;;15.65;6.72;;;8.60;99.90;;;;;;5052362;28;20025;-64
2022/10/10 06:32:11;;;;;;;15.50;7.53;;;8.70;99.90;;;;;;5051141;28;20068;-65
2022/10/10 06:34:37;;;;;;;11.45;6.38;;;8.70;99.90;;;;;;5052447;28;20053;-64
2022/10/10 06:37:03;;;;;;;16.15;7.75;;;8.70;99.90;;;;;;5052122;28;20446;-64
2022/10/10 06:39:28;;;;;;;14.45;6.82;;;8.70;99.90;;;;;;5051520;28;20735;-64
2022/10/10 06:41:54;;;;;;;16.88;6.88;;;8.70;99.90;;;;;;5051903;28;20033;-64
2022/10/10 06:44:20;;;;;;;13.93;6.95;;;8.70;99.90;;;;;;5051000;28;20024;-64
2022/10/10 06:46:45;;;;;;;14.80;6.93;;;8.70;99.90;;;;;;5052030;28;20401;-64
2022/10/10 06:49:11;;;;;;;12.88;6.85;;;8.70;99.90;;;;;;5051662;28;20029;-67
2022/10/10 06:51:38;;;;;;;20.02;7.75;;;8.60;99.90;;;;;;5051377;28;20489;-64
2022/10/10 06:54:04;;;;;;;16.98;7.43;;;8.60;99.90;;;;;;5051309;28;20102;-65
2022/10/10 06:56:29;;;;;;;17.20;7.88;;;8.60;99.90;;;;;;5049747;28;20545;-64
2022/10/10 06:58:55;;;;;;;14.32;6.53;;;8.60;99.90;;;;;;5050381;28;20082;-64
2022/10/10 07:01:23;;;;;;;15.05;6.60;;;8.60;99.90;;;;;;5050861;28;20120;-65
2022/10/10 07:03:49;;;;;;;13.50;7.60;;;8.60;99.90;;;;;;5051593;28;20037;-64
2022/10/10 07:06:15;;;;;;;11.85;6.57;;;8.70;99.90;;;;;;5050897;28;20075;-69
2022/10/10 07:08:41;;;;;;;15.65;7.15;;;8.80;99.90;;;;;;5051340;28;20078;-65
2022/10/10 07:11:07;;;;;;;12.63;5.85;;;8.90;99.90;;;;;;5051256;28;20036;-64
2022/10/10 07:13:35;;;;;;;14.52;5.90;;;8.90;99.90;;;;;;5050575;28;20032;-64
2022/10/10 07:16:01;;;;;;;12.10;5.82;;;8.80;99.90;;;;;;5051083;28;20036;-64
2022/10/10 07:18:27;;;;;;;18.90;5.90;;;8.80;99.90;;;;;;5050155;28;20048;-64
2022/10/10 07:21:00;;;;;;;12.68;6.45;;;8.70;99.90;;;;;;5050337;28;20057;-64
2022/10/10 07:23:27;;;;;;;18.77;7.97;;;8.90;99.90;;;;;;5050375;28;20040;-64
2022/10/10 07:25:59;;;;;;;19.02;10.30;;;9.10;99.90;;;;;;5051187;28;20116;-63
2022/10/10 07:28:25;;;;;;;19.65;9.27;;;9.40;99.90;;;;;;5050249;28;20063;-64
2022/10/10 07:30:58;;;;;;;19.50;9.15;;;9.70;99.90;;;;;;5051194;28;20029;-65
2022/10/10 07:33:23;;;;;;;26.45;8.85;;;9.80;99.90;;;;;;5050307;28;20044;-65
2022/10/10 07:35:55;;;;;;;14.98;7.95;;;9.90;99.90;;;;;;5051140;28;20025;-64
2022/10/10 07:38:21;;;;;;;21.45;9.30;;;10.10;99.90;;;;;;5050376;28;20415;-64
2022/10/10 07:40:47;;;;;;;15.45;8.35;;;10.10;99.90;;;;;;5051132;28;20111;-65
2022/10/10 07:43:13;;;;;;;18.35;8.77;;;10.30;99.90;;;;;;5050931;28;20377;-65
2022/10/10 07:45:38;;;;;;;14.65;8.13;;;10.30;99.90;;;;;;5050220;28;20036;-64
2022/10/10 07:48:04;;;;;;;14.43;8.60;;;10.40;99.90;;;;;;5050433;28;20381;-63
2022/10/10 07:50:30;;;;;;;17.67;8.43;;;10.60;99.90;;;;;;5049810;28;20572;-64
2022/10/10 07:52:55;;;;;;;18.17;8.88;;;10.70;99.90;;;;;;5050728;28;20523;-65
2022/10/10 07:55:21;;;;;;;21.80;9.20;;;10.80;99.90;;;;;;5049843;28;20039;-64
2022/10/10 07:57:47;;;;;;;22.77;9.27;;;10.90;99.90;;;;;;5050459;28;20393;-65
2022/10/10 08:00:14;;;;;;;21.83;9.70;;;11.00;99.90;;;;;;5050463;28;20033;-65
2022/10/10 08:02:39;;;;;;;24.65;9.45;;;11.00;99.90;;;;;;5049887;28;20535;-64
2022/10/10 08:05:06;;;;;;;20.98;8.95;;;11.10;99.90;;;;;;5050132;28;20124;-66
2022/10/10 08:07:31;;;;;;;17.90;9.40;;;11.20;99.90;;;;;;5049509;28;20024;-65
2022/10/10 08:09:57;;;;;;;20.90;8.85;;;11.30;99.90;;;;;;5050372;28;20362;-63
2022/10/10 08:12:23;;;;;;;22.20;9.68;;;11.40;99.90;;;;;;5048862;28;20470;-65
2022/10/10 08:14:48;;;;;;;22.40;11.38;;;11.50;99.90;;;;;;5049753;28;20032;-65
2022/10/10 08:17:14;;;;;;;24.45;12.88;;;11.70;99.90;;;;;;5050279;28;20029;-64
2022/10/10 08:19:39;;;;;;;23.25;11.73;;;11.70;99.90;;;;;;5049208;28;20025;-64
2022/10/10 08:22:05;;;;;;;25.08;13.48;;;11.70;99.90;;;;;;5049685;28;20501;-62
2022/10/10 08:24:31;;;;;;;28.23;13.85;;;11.80;99.90;;;;;;5049078;28;20079;-65
2022/10/10 08:26:56;;;;;;;31.05;15.75;;;11.80;99.90;;;;;;5049972;28;20033;-64
2022/10/10 08:29:23;;;;;;;31.33;14.88;;;12.00;99.90;;;;;;5048910;28;20052;-64
2022/10/10 08:31:48;;;;;;;29.15;14.05;;;12.00;99.90;;;;;;5049599;28;20071;-65
2022/10/10 08:34:14;;;;;;;33.25;17.92;;;12.10;99.90;;;;;;5049477;28;20060;-64
2022/10/10 08:36:40;;;;;;;29.73;16.63;;;12.20;99.90;;;;;;5048714;28;20029;-65
2022/10/10 08:39:05;;;;;;;30.13;13.38;;;12.30;99.90;;;;;;5048491;28;20033;-64
2022/10/10 08:41:44;;;;;;;26.38;12.77;;;12.40;99.90;;;;;;5048400;28;20068;-66
2022/10/10 08:44:24;;;;;;;26.88;12.57;;;12.60;99.90;;;;;;5049451;28;20092;-64
2022/10/10 08:47:02;;;;;;;25.50;12.55;;;12.80;99.90;;;;;;5049293;28;20060;-67
2022/10/10 08:49:43;;;;;;;26.63;12.00;;;13.00;99.90;;;;;;5048972;28;20029;-65
2022/10/10 08:52:26;;;;;;;21.92;11.65;;;13.10;99.90;;;;;;5049438;28;20041;-65
2022/10/10 08:54:53;;;;;;;22.23;11.68;;;13.20;99.90;;;;;;5049624;28;20031;-63
2022/10/10 08:57:28;;;;;;;28.60;11.70;;;13.30;99.90;;;;;;5049080;28;20027;-68
2022/10/10 09:00:20;;;;;;;25.00;12.15;;;13.40;99.90;;;;;;5049653;28;20054;-66
2022/10/10 09:02:57;;;;;;;26.42;12.00;;;13.50;99.90;;;;;;5048653;28;20512;-63
2022/10/10 09:05:41;;;;;;;24.95;12.68;;;13.60;99.90;;;;;;5048773;28;20021;-66
2022/10/10 09:08:43;;;;;;;26.80;13.10;;;13.50;99.90;;;;;;5049570;28;20090;-63
2022/10/10 09:11:27;;;;;;;22.45;11.82;;;13.60;99.90;;;;;;5048925;28;20153;-64
2022/10/10 09:14:20;;;;;;;31.52;12.20;;;13.80;99.90;;;;;;5049473;28;20059;-65
2022/10/10 09:16:49;;;;;;;25.23;12.05;;;13.70;99.90;;;;;;5048493;28;20017;-64
2022/10/10 09:19:23;;;;;;;23.63;12.38;;;13.60;99.90;;;;;;5049370;28;20032;-65
2022/10/10 09:21:55;;;;;;;25.35;11.30;;;13.70;99.90;;;;;;5048716;28;20140;-65
2022/10/10 09:24:47;;;;;;;27.63;12.77;;;13.80;99.90;;;;;;5049318;28;20462;-68
2022/10/10 09:27:21;;;;;;;23.48;11.52;;;13.90;99.90;;;;;;5047038;28;20428;-62
2022/10/10 09:29:59;;;;;;;25.63;11.43;;;14.00;99.90;;;;;;5048700;28;20033;-65
2022/10/10 09:33:09;;;;;;;19.60;10.88;;;14.10;99.90;;;;;;5048293;28;20393;-65
2022/10/10 09:35:38;;;;;;;22.20;11.75;;;14.40;99.90;;;;;;5027822;28;20041;-64
2022/10/10 09:38:09;;;;;;;19.70;11.05;;;14.50;99.90;;;;;;5029289;28;20029;-65
2022/10/10 09:40:46;;;;;;;22.63;11.13;;;14.80;99.90;;;;;;5028425;28;20087;-64
2022/10/10 09:43:17;;;;;;;19.38;10.30;;;15.10;99.90;;;;;;5031716;28;20682;-64
2022/10/10 09:45:56;;;;;;;19.88;9.00;;;15.40;99.90;;;;;;5032816;28;20018;-64
2022/10/10 09:48:28;;;;;;;15.98;9.25;;;15.60;99.90;;;;;;5032986;28;20437;-69
2022/10/10 09:50:54;;;;;;;18.55;9.20;;;15.90;99.90;;;;;;5032949;28;20037;-65
2022/10/10 09:53:19;;;;;;;17.38;9.13;;;16.20;99.90;;;;;;5033188;28;20041;-64
2022/10/10 09:55:47;;;;;;;16.70;7.60;;;16.20;99.90;;;;;;5041540;28;20040;-64
2022/10/10 09:58:22;;;;;;;17.80;8.07;;;16.30;99.90;;;;;;5052861;28;20033;-65
2022/10/10 10:00:48;;;;;;;16.30;8.15;;;16.40;99.90;;;;;;5052758;28;20031;-63
2022/10/10 10:03:17;;;;;;;24.00;7.13;;;16.60;99.90;;;;;;5052663;28;20032;-63
2022/10/10 10:05:45;;;;;;;15.93;7.03;;;16.70;99.90;;;;;;5052087;28;20107;-63
2022/10/10 10:08:27;;;;;;;14.68;6.38;;;16.70;99.90;;;;;;5052646;28;20083;-64
2022/10/10 10:10:56;;;;;;;12.48;6.07;;;16.70;99.90;;;;;;5052780;28;20056;-62
2022/10/10 10:13:29;;;;;;;11.27;4.85;;;16.80;99.90;;;;;;5052315;28;20036;-68
2022/10/10 10:16:11;;;;;;;14.80;5.55;;;16.90;99.90;;;;;;5052694;28;20044;-65
2022/10/10 10:18:42;;;;;;;11.27;4.65;;;17.00;99.90;;;;;;5051634;28;20032;-64
2022/10/10 10:21:19;;;;;;;10.55;4.90;;;17.00;99.90;;;;;;5052153;28;20501;-62
2022/10/10 10:24:20;;;;;;;14.73;4.72;;;17.20;99.90;;;;;;5051549;28;20025;-66
2022/10/10 10:26:47;;;;;;;10.18;4.65;;;17.30;99.90;;;;;;5051254;28;20081;-65
2022/10/10 10:29:33;;;;;;;12.85;4.53;;;17.20;99.90;;;;;;5052103;28;20074;-64
2022/10/10 10:32:43;;;;;;;11.70;4.43;;;17.10;99.90;;;;;;5052318;28;20033;-63
2022/10/10 10:35:20;;;;;;;8.10;4.13;;;17.00;99.90;;;;;;5043270;28;20036;-65
2022/10/10 10:38:19;;;;;;;9.50;4.38;;;16.90;99.90;;;;;;5051376;28;20021;-63
2022/10/10 10:41:05;;;;;;;14.23;5.13;;;16.80;99.90;;;;;;5051009;28;20493;-64
2022/10/10 10:43:56;;;;;;;15.70;4.88;;;16.70;99.90;;;;;;5051204;28;20033;-66
2022/10/10 10:46:37;;;;;;;10.40;4.50;;;16.70;99.90;;;;;;5051702;28;20079;-68
2022/10/10 10:49:09;;;;;;;;;;;16.70;99.90;;;;;;5050597;28;20071;-63
2022/10/10 10:52:04;;;;;;;8.55;4.97;;;16.80;99.90;;;;;;5051197;28;19982;-64
2022/10/10 10:54:58;;;;;;;7.68;4.20;;;16.90;99.90;;;;;;5050262;28;20473;-66
2022/10/10 10:57:30;;;;;;;11.75;5.18;;;17.00;99.90;;;;;;5046240;28;20045;-66
2022/10/10 11:00:05;;;;;;;10.05;4.47;;;17.00;99.90;;;;;;5051402;28;20036;-66
2022/10/10 11:02:45;;;;;;;10.07;3.53;;;17.00;99.90;;;;;;5050467;28;20469;-64
2022/10/10 11:05:32;;;;;;;12.13;4.32;;;16.90;99.90;;;;;;5051501;28;20113;-66
2022/10/10 11:08:06;;;;;;;9.20;4.50;;;16.90;99.90;;;;;;5051409;28;20029;-64
2022/10/10 11:10:55;;;;;;;9.10;4.18;;;16.90;99.90;;;;;;5050471;28;20037;-65
2022/10/10 11:13:36;;;;;;;16.13;4.25;;;16.90;99.90;;;;;;5047982;28;20025;-66
2022/10/10 11:16:21;;;;;;;10.07;4.03;;;16.90;99.90;;;;;;5051530;28;20143;-66
2022/10/10 11:19:05;;;;;;;11.52;4.35;;;16.90;99.90;;;;;;5050193;28;20119;-64
2022/10/10 11:21:33;;;;;;;16.40;4.03;;;16.90;99.90;;;;;;5030111;28;20076;-66
2022/10/10 11:24:09;;;;;;;11.38;3.63;;;17.00;99.90;;;;;;5046324;28;20032;-63
2022/10/10 11:26:39;;;;;;;13.52;4.18;;;16.90;99.90;;;;;;5050526;28;20114;-65
2022/10/10 11:29:14;;;;;;;12.43;4.28;;;16.80;99.90;;;;;;5051272;28;20035;-64
2022/10/10 11:31:53;;;;;;;9.05;4.35;;;16.80;99.90;;;;;;5049031;28;20138;-62
2022/10/10 11:34:26;;;;;;;10.30;4.43;;;16.80;99.90;;;;;;5051038;28;20033;-64
2022/10/10 11:36:58;;;;;;;7.45;4.20;;;16.80;99.90;;;;;;5050303;28;20684;-65
2022/10/10 11:39:34;;;;;;;13.95;4.60;;;16.80;99.90;;;;;;5050906;28;20028;-65
2022/10/10 11:42:20;;;;;;;9.00;4.00;;;16.90;99.90;;;;;;5049541;28;20029;-63
2022/10/10 11:44:58;;;;;;;14.40;3.83;;;17.10;99.90;;;;;;5042427;28;20041;-62
2022/10/10 11:47:34;;;;;;;8.68;4.07;;;17.10;99.90;;;;;;5051200;28;20040;-65
2022/10/10 11:50:20;;;;;;;11.55;4.40;;;17.20;99.90;;;;;;5050564;28;20024;-64
2022/10/10 11:52:57;;;;;;;8.73;4.35;;;17.00;99.90;;;;;;5049994;28;20116;-64
2022/10/10 11:55:32;;;;;;;10.10;4.57;;;16.90;99.90;;;;;;5050751;28;20071;-64
2022/10/10 11:58:03;;;;;;;12.23;4.18;;;16.90;99.90;;;;;;5050513;28;20074;-66
2022/10/10 12:00:38;;;;;;;8.30;4.07;;;16.80;99.90;;;;;;5050270;28;20542;-67
2022/10/10 12:03:06;;;;;;;14.52;4.07;;;16.80;99.90;;;;;;5050448;28;20036;-65
2022/10/10 12:05:37;;;;;;;9.85;4.32;;;16.80;99.90;;;;;;5049180;28;20040;-68
2022/10/10 12:08:24;;;;;;;8.77;3.70;;;17.00;99.90;;;;;;5050496;28;20378;-64
2022/10/10 12:11:15;;;;;;;11.80;3.92;;;17.10;99.90;;;;;;5049620;28;20039;-65
2022/10/10 12:14:12;;;;;;;10.57;3.83;;;17.30;99.90;;;;;;5046343;28;20072;-66
2022/10/10 12:16:38;;;;;;;7.18;3.35;;;17.40;99.90;;;;;;5048857;28;20049;-64
2022/10/10 12:19:05;;;;;;;7.50;3.88;;;17.40;99.90;;;;;;5050073;28;20706;-65
2022/10/10 12:21:50;;;;;;;15.00;4.68;;;17.40;99.90;;;;;;5049140;28;20067;-66
2022/10/10 12:24:15;;;;;;;11.55;3.72;;;17.50;99.90;;;;;;5050242;28;20029;-65
2022/10/10 12:27:23;;;;;;;8.52;3.85;;;17.60;99.90;;;;;;5047917;28;20425;-66
2022/10/10 12:29:55;;;;;;;11.35;3.50;;;17.90;99.90;;;;;;5049256;28;20037;-64
2022/10/10 12:32:54;;;;;;;11.10;3.13;;;18.70;99.90;;;;;;5049885;28;20025;-63
2022/10/10 12:35:25;;;;;;;13.02;3.45;;;19.20;99.90;;;;;;5037487;28;20155;-64
2022/10/10 12:38:19;;;;;;;8.27;3.28;;;19.40;99.90;;;;;;5049421;28;20762;-64
2022/10/10 12:40:56;;;;;;;13.27;2.78;;;19.50;99.90;;;;;;5047860;28;20470;-65
2022/10/10 12:43:41;;;;;;;7.85;3.20;;;19.70;99.90;;;;;;5049694;28;20029;-64
2022/10/10 12:46:25;;;;;;;7.93;3.00;;;19.90;99.90;;;;;;5029961;28;20025;-63
2022/10/10 12:49:04;;;;;;;5.70;2.83;;;20.20;99.90;;;;;;5028984;28;20087;-64
2022/10/10 12:51:33;;;;;;;7.95;3.00;;;20.40;99.90;;;;;;5029607;28;20068;-65
2022/10/10 12:54:01;;;;;;;9.05;3.65;;;20.30;99.90;;;;;;5029216;28;20036;-64
2022/10/10 12:56:43;;;;;;;15.35;3.00;;;20.30;99.90;;;;;;5029671;28;20041;-65
2022/10/10 12:59:22;;;;;;;8.60;2.80;;;20.40;99.90;;;;;;5029507;28;20025;-63
2022/10/10 13:01:55;;;;;;;9.27;3.10;;;20.10;99.90;;;;;;5028795;28;20029;-63
2022/10/10 13:04:24;;;;;;;12.23;3.25;;;20.10;99.90;;;;;;5029421;28;20081;-64
2022/10/10 13:06:54;;;;;;;8.95;3.05;;;20.20;99.90;;;;;;5028881;28;20091;-64
2022/10/10 13:09:23;;;;;;;11.60;3.03;;;20.30;99.90;;;;;;5029687;28;20033;-65